Time;durP1;ratioP1;P1;durP2;ratioP2;P2;SDS_P1;SDS_P2;PMS_P1;PMS_P2;Temp;Humidity;BMP_temperature;BMP_pressure;BME280_temperature;BME280_humidity;BME280_pressure;Samples;Min_cycle;Max_cycle;Signal;HPM_P1;HPM_P2
2024/01/09 00:01:43;;;;;;;2.20;1.93;;;-16.00;99.90;;;;;;4437977;28;658092;-72
2024/01/09 00:04:30;;;;;;;14.37;5.83;;;-15.90;99.90;;;;;;4416066;28;658777;-72
2024/01/09 00:07:17;;;;;;;2.10;1.70;;;-15.90;99.90;;;;;;4424548;28;658896;-72
2024/01/09 00:10:06;;;;;;;1.53;1.27;;;-15.90;99.90;;;;;;4445028;28;657332;-72
2024/01/09 00:12:54;;;;;;;2.83;1.80;;;-15.90;99.90;;;;;;4421111;28;658714;-72
2024/01/09 00:15:41;;;;;;;8.53;3.53;;;-15.80;99.90;;;;;;4436608;28;657527;-72
2024/01/09 00:18:28;;;;;;;1.65;1.55;;;-15.70;99.90;;;;;;4398203;28;657615;-72
2024/01/09 00:21:16;;;;;;;37.27;12.97;;;-15.70;99.90;;;;;;4421489;28;658533;-72
2024/01/09 00:24:03;;;;;;;1.83;0.90;;;-15.80;99.90;;;;;;4397229;28;659649;-73
2024/01/09 00:26:50;;;;;;;4.60;1.80;;;-15.70;99.90;;;;;;4418617;28;658756;-73
2024/01/09 00:29:39;;;;;;;2.53;1.40;;;-15.70;99.90;;;;;;4415918;28;657624;-72
2024/01/09 00:32:27;;;;;;;1.67;1.47;;;-15.80;99.90;;;;;;4425866;28;658427;-73
2024/01/09 00:35:15;;;;;;;0.73;0.20;;;-15.80;99.90;;;;;;4404872;28;658268;-72
2024/01/09 00:38:02;;;;;;;9.07;2.83;;;-15.90;99.90;;;;;;4422049;28;657565;-73
2024/01/09 00:40:49;;;;;;;9.63;3.83;;;-15.90;99.90;;;;;;4405580;28;658130;-72
2024/01/09 00:43:36;;;;;;;9.00;1.10;;;-15.90;99.90;;;;;;4420431;28;657647;-72
2024/01/09 00:46:28;;;;;;;10.47;5.07;;;-16.00;99.90;;;;;;4405411;28;657878;-72
2024/01/09 00:49:15;;;;;;;2.93;0.87;;;-16.20;99.90;;;;;;4398674;28;659357;-72
2024/01/09 00:52:03;;;;;;;5.60;1.73;;;-16.20;99.90;;;;;;4400146;28;658499;-72
2024/01/09 00:54:50;;;;;;;1.53;1.10;;;-16.10;99.90;;;;;;4426373;28;658646;-72
2024/01/09 00:57:37;;;;;;;4.03;2.72;;;-16.20;99.90;;;;;;4410166;28;657710;-72
2024/01/09 01:00:25;;;;;;;0.30;0.30;;;-16.10;99.90;;;;;;4414099;28;658034;-73
2024/01/09 01:03:14;;;;;;;0.23;0.23;;;-16.10;99.90;;;;;;4423809;28;657896;-72
2024/01/09 01:06:02;;;;;;;4.03;0.67;;;-16.10;99.90;;;;;;4421280;28;657063;-72
2024/01/09 01:08:50;;;;;;;0.67;0.67;;;-16.00;99.90;;;;;;4402825;28;658932;-73
2024/01/09 01:11:37;;;;;;;2.07;1.27;;;-16.00;99.90;;;;;;4424470;28;657063;-73
2024/01/09 01:14:24;;;;;;;0.27;0.27;;;-16.10;99.90;;;;;;4393717;28;658201;-73
2024/01/09 01:17:12;;;;;;;5.93;2.93;;;-16.10;99.90;;;;;;4432581;28;657792;-72
2024/01/09 01:20:00;;;;;;;4.07;1.70;;;-16.00;99.90;;;;;;4427966;28;658912;-72
2024/01/09 01:22:47;;;;;;;2.70;1.75;;;-16.10;99.90;;;;;;4420640;28;657469;-72
2024/01/09 01:25:35;;;;;;;1.67;0.93;;;-16.20;99.90;;;;;;4440169;28;657952;-72
2024/01/09 01:28:22;;;;;;;6.53;4.83;;;-16.10;99.90;;;;;;4436189;28;657785;-72
2024/01/09 01:31:09;;;;;;;1.30;1.00;;;-16.00;99.90;;;;;;4418934;28;657375;-73
2024/01/09 01:33:56;;;;;;;3.80;1.77;;;-16.00;99.90;;;;;;4449342;28;657143;-72
2024/01/09 01:36:45;;;;;;;0.75;0.60;;;-15.90;99.90;;;;;;4416559;28;658069;-72
2024/01/09 01:39:32;;;;;;;4.00;2.30;;;-15.90;99.90;;;;;;4440869;28;657811;-73
2024/01/09 01:42:19;;;;;;;15.60;14.00;;;-15.90;99.90;;;;;;4417934;28;657952;-72
2024/01/09 01:45:09;;;;;;;5.00;1.40;;;-15.90;99.90;;;;;;4433255;28;659417;-72
2024/01/09 01:47:56;;;;;;;7.30;1.40;;;-15.90;99.90;;;;;;4417777;28;659489;-73
2024/01/09 01:50:43;;;;;;;5.77;4.27;;;-16.00;99.90;;;;;;4424551;28;657710;-72
2024/01/09 01:53:32;;;;;;;2.97;2.83;;;-16.00;99.90;;;;;;4439319;28;658515;-72
2024/01/09 01:56:19;;;;;;;12.47;4.07;;;-16.10;99.90;;;;;;4418405;28;658289;-73
2024/01/09 01:59:06;;;;;;;0.87;0.53;;;-16.10;99.90;;;;;;4445562;28;658485;-73
2024/01/09 02:01:53;;;;;;;1.17;1.17;;;-16.20;99.90;;;;;;4421693;28;657224;-73
2024/01/09 02:04:41;;;;;;;0.10;0.10;;;-16.10;99.90;;;;;;4436913;28;659096;-73
2024/01/09 02:07:29;;;;;;;2.72;1.55;;;-16.10;99.90;;;;;;4421997;28;657476;-73
2024/01/09 02:10:17;;;;;;;12.43;4.27;;;-16.10;99.90;;;;;;4435154;28;658088;-73
2024/01/09 02:13:05;;;;;;;0.50;0.50;;;-16.10;99.90;;;;;;4415699;28;658982;-73
2024/01/09 02:15:52;;;;;;;11.93;2.63;;;-16.00;99.90;;;;;;4432572;28;658196;-73
2024/01/09 02:18:40;;;;;;;7.13;3.83;;;-16.00;99.90;;;;;;4427885;28;659081;-73
2024/01/09 02:21:29;;;;;;;11.30;5.70;;;-15.80;99.90;;;;;;4397751;28;657394;-73
2024/01/09 02:24:16;;;;;;;3.00;0.87;;;-15.80;99.90;;;;;;4421765;28;659570;-73
2024/01/09 02:27:08;;;;;;;3.60;1.73;;;-15.90;99.90;;;;;;4404460;28;657817;-73
2024/01/09 02:29:56;;;;;;;2.80;0.67;;;-16.00;99.90;;;;;;4399538;28;659007;-73
2024/01/09 02:32:44;;;;;;;4.10;0.83;;;-16.10;99.90;;;;;;4394393;28;657718;-72
2024/01/09 02:35:32;;;;;;;5.63;0.77;;;-16.20;99.90;;;;;;4421658;28;658166;-73
2024/01/09 02:38:19;;;;;;;13.67;5.60;;;-16.20;99.90;;;;;;4402031;28;658157;-73
2024/01/09 02:41:06;;;;;;;2.20;1.80;;;-16.20;99.90;;;;;;4421322;28;658827;-73
2024/01/09 02:43:53;;;;;;;2.30;1.27;;;-16.20;99.90;;;;;;4403957;28;657423;-73
2024/01/09 02:46:42;;;;;;;3.13;2.47;;;-16.20;99.90;;;;;;4418380;28;658363;-73
2024/01/09 02:49:29;;;;;;;4.43;0.83;;;-16.00;99.90;;;;;;4400363;28;658658;-72
2024/01/09 02:52:16;;;;;;;5.07;1.90;;;-16.10;99.90;;;;;;4413858;28;657972;-73
2024/01/09 02:55:04;;;;;;;4.67;1.50;;;-16.00;99.90;;;;;;4405375;28;657945;-73
2024/01/09 02:57:51;;;;;;;1.43;1.00;;;-16.00;99.90;;;;;;4420595;28;658235;-73
2024/01/09 03:00:38;;;;;;;2.20;1.57;;;-16.20;99.90;;;;;;4399121;28;657710;-73
2024/01/09 03:03:26;;;;;;;0.27;0.27;;;-16.30;99.90;;;;;;4422638;28;658193;-73
2024/01/09 03:06:14;;;;;;;3.63;1.90;;;-16.30;99.90;;;;;;4400309;28;657824;-73
2024/01/09 03:09:01;;;;;;;1.83;1.73;;;-16.30;99.90;;;;;;4421714;28;658004;-73
2024/01/09 03:11:48;;;;;;;1.70;0.73;;;-16.30;99.90;;;;;;4402340;28;658185;-72
2024/01/09 03:14:37;;;;;;;1.17;0.83;;;-16.30;99.90;;;;;;4430443;28;658662;-73
2024/01/09 03:17:24;;;;;;;3.00;1.90;;;-16.30;99.90;;;;;;4407747;28;658762;-73
2024/01/09 03:20:13;;;;;;;0.87;0.67;;;-16.30;99.90;;;;;;4446462;28;657355;-73
2024/01/09 03:23:00;;;;;;;1.90;1.57;;;-16.40;99.90;;;;;;4419541;28;657962;-73
2024/01/09 03:25:47;;;;;;;0.17;0.17;;;-16.30;99.90;;;;;;4427600;28;657603;-73
2024/01/09 03:28:35;;;;;;;2.00;1.40;;;-16.20;99.90;;;;;;4441084;28;657820;-73
2024/01/09 03:31:23;;;;;;;0.63;0.63;;;-16.20;99.90;;;;;;4443326;28;657887;-73
2024/01/09 03:34:10;;;;;;;0.60;0.60;;;-16.20;99.90;;;;;;4446244;28;658142;-73
2024/01/09 03:36:59;;;;;;;0.50;0.50;;;-16.20;99.90;;;;;;4436134;28;658047;-73
2024/01/09 03:39:46;;;;;;;0.10;0.10;;;-16.30;99.90;;;;;;4444607;28;657548;-73
2024/01/09 03:42:33;;;;;;;0.30;0.20;;;-16.30;99.90;;;;;;4417870;28;658525;-73
2024/01/09 03:45:20;;;;;;;0.40;0.35;;;-16.30;99.90;;;;;;4446073;28;658175;-73
2024/01/09 03:48:08;;;;;;;3.13;0.97;;;-16.30;99.90;;;;;;4425601;28;658068;-74
2024/01/09 03:50:55;;;;;;;0.20;0.20;;;-16.20;99.90;;;;;;4433726;28;658323;-73
2024/01/09 03:53:44;;;;;;;1.45;1.08;;;-16.30;99.90;;;;;;4427751;28;658087;-73
2024/01/09 03:56:31;;;;;;;0.10;0.10;;;-16.30;99.90;;;;;;4443192;28;658082;-74
2024/01/09 03:59:18;;;;;;;0.60;0.60;;;-16.20;99.90;;;;;;4419440;28;657668;-73
2024/01/09 04:02:05;;;;;;;0.43;0.40;;;-16.20;99.90;;;;;;4440753;28;658600;-73
2024/01/09 04:04:53;;;;;;;5.43;4.90;;;-16.20;99.90;;;;;;4423273;28;658300;-73
2024/01/09 04:07:40;;;;;;;1.03;0.87;;;-16.30;99.90;;;;;;4433067;28;659123;-73
2024/01/09 04:10:30;;;;;;;3.40;1.00;;;-16.50;99.90;;;;;;4437524;28;657375;-73
2024/01/09 04:13:17;;;;;;;7.10;2.43;;;-16.60;99.90;;;;;;4441604;28;657794;-73
2024/01/09 04:16:04;;;;;;;4.13;2.53;;;-16.50;99.90;;;;;;4424821;28;658469;-74
2024/01/09 04:18:52;;;;;;;0.20;0.20;;;-16.50;99.90;;;;;;4434599;28;657933;-73
2024/01/09 04:21:39;;;;;;;0.50;0.20;;;-16.30;99.90;;;;;;4419486;28;658337;-73
2024/01/09 04:24:26;;;;;;;4.97;2.73;;;-16.30;99.90;;;;;;4435857;28;658018;-73
2024/01/09 04:27:14;;;;;;;2.93;1.70;;;-16.30;99.90;;;;;;4415509;28;657555;-73
2024/01/09 04:30:02;;;;;;;2.10;0.97;;;-16.20;99.90;;;;;;4445800;28;658188;-74
2024/01/09 04:32:49;;;;;;;5.30;1.27;;;-16.20;99.90;;;;;;4428820;28;658454;-73
2024/01/09 04:35:36;;;;;;;7.70;2.50;;;-16.20;99.90;;;;;;4443636;28;657518;-73
2024/01/09 04:38:23;;;;;;;1.80;1.70;;;-16.10;99.90;;;;;;4420085;28;658313;-73
2024/01/09 04:41:15;;;;;;;1.88;0.40;;;-16.10;99.90;;;;;;4441022;28;658343;-73
2024/01/09 04:44:04;;;;;;;2.08;0.88;;;-16.10;99.90;;;;;;4404490;28;658413;-73
2024/01/09 04:46:51;;;;;;;7.47;5.40;;;-16.10;99.90;;;;;;4432241;28;657225;-73
2024/01/09 04:49:38;;;;;;;0.87;0.80;;;-16.10;99.90;;;;;;4419776;28;657667;-74
2024/01/09 04:52:25;;;;;;;1.40;0.82;;;-16.10;99.90;;;;;;4441612;28;658461;-74
2024/01/09 04:55:13;;;;;;;4.40;1.47;;;-16.10;99.90;;;;;;4424350;28;657890;-73
2024/01/09 04:58:00;;;;;;;8.43;2.53;;;-16.10;99.90;;;;;;4438884;28;658530;-73
2024/01/09 05:00:49;;;;;;;1.33;0.73;;;-16.10;99.90;;;;;;4437138;28;657828;-73
2024/01/09 05:03:36;;;;;;;19.60;7.43;;;-16.10;99.90;;;;;;4439357;28;657358;-73
2024/01/09 05:06:23;;;;;;;1.13;1.10;;;-16.10;99.90;;;;;;4416581;28;658365;-74
2024/01/09 05:09:11;;;;;;;18.33;7.33;;;-16.10;99.90;;;;;;4432038;28;658230;-73
2024/01/09 05:11:58;;;;;;;6.87;2.30;;;-16.10;99.90;;;;;;4420647;28;658897;-74
2024/01/09 05:14:45;;;;;;;0.40;0.30;;;-16.20;99.90;;;;;;4442103;28;658148;-73
2024/01/09 05:17:35;;;;;;;1.55;1.05;;;-16.20;99.90;;;;;;4422323;28;658228;-73
2024/01/09 05:20:23;;;;;;;2.23;1.43;;;-16.30;99.90;;;;;;4422391;28;657909;-73
2024/01/09 05:23:10;;;;;;;2.10;1.03;;;-16.50;99.90;;;;;;4430569;28;658577;-73
2024/01/09 05:25:57;;;;;;;1.13;1.03;;;-16.50;99.90;;;;;;4429162;28;657409;-73
2024/01/09 05:28:45;;;;;;;5.43;2.77;;;-16.50;99.90;;;;;;4438597;28;658081;-73
2024/01/09 05:31:32;;;;;;;4.50;3.90;;;-16.50;99.90;;;;;;4442528;28;658286;-73
2024/01/09 05:34:21;;;;;;;2.20;1.80;;;-16.50;99.90;;;;;;4448427;28;657944;-74
2024/01/09 05:37:08;;;;;;;0.40;0.40;;;-16.60;99.90;;;;;;4419549;28;657689;-73
2024/01/09 05:39:55;;;;;;;0.23;0.23;;;-16.60;99.90;;;;;;4438891;28;658399;-73
2024/01/09 05:42:43;;;;;;;10.32;2.88;;;-16.70;99.90;;;;;;4416161;28;657606;-73
2024/01/09 05:45:31;;;;;;;0.73;0.73;;;-16.90;99.90;;;;;;4441734;28;659740;-74
2024/01/09 05:48:18;;;;;;;0.10;0.10;;;-16.90;99.90;;;;;;4413295;28;657157;-74
2024/01/09 05:51:06;;;;;;;1.17;1.07;;;-16.90;99.90;;;;;;4430569;28;658774;-73
2024/01/09 05:53:53;;;;;;;9.67;4.27;;;-16.90;99.90;;;;;;4423657;28;657449;-73
2024/01/09 05:56:41;;;;;;;0.83;0.80;;;-17.00;99.90;;;;;;4437532;28;658759;-73
2024/01/09 05:59:28;;;;;;;1.40;0.40;;;-17.00;99.90;;;;;;4405462;28;657609;-74
2024/01/09 06:02:15;;;;;;;15.10;3.30;;;-17.00;99.90;;;;;;4439006;28;658158;-73
2024/01/09 06:05:02;;;;;;;1.40;0.85;;;-17.00;99.90;;;;;;4414133;28;659363;-73
2024/01/09 06:07:51;;;;;;;2.10;1.67;;;-17.00;99.90;;;;;;4441432;28;658097;-74
2024/01/09 06:10:38;;;;;;;5.80;5.33;;;-16.90;99.90;;;;;;4415059;28;658226;-73
2024/01/09 06:13:25;;;;;;;0.50;0.50;;;-16.80;99.90;;;;;;4435652;28;658083;-73
2024/01/09 06:16:13;;;;;;;1.60;1.50;;;-16.70;99.90;;;;;;4407506;28;658472;-73
2024/01/09 06:19:00;;;;;;;0.90;0.87;;;-16.80;99.90;;;;;;4433159;28;658979;-73
2024/01/09 06:21:47;;;;;;;6.70;1.43;;;-16.90;99.90;;;;;;4435350;28;657999;-73
2024/01/09 06:24:36;;;;;;;2.55;2.35;;;-16.80;99.90;;;;;;4457324;28;657906;-73
2024/01/09 06:27:23;;;;;;;0.23;0.20;;;-16.70;99.90;;;;;;4426015;28;658292;-73
2024/01/09 06:30:11;;;;;;;0.20;0.20;;;-16.80;99.90;;;;;;4431208;28;658942;-73
2024/01/09 06:32:58;;;;;;;0.10;0.10;;;-16.80;99.90;;;;;;4418703;28;658561;-73
2024/01/09 06:35:45;;;;;;;2.43;1.90;;;-16.80;99.90;;;;;;4436363;28;658273;-73
2024/01/09 06:38:33;;;;;;;2.75;1.85;;;-16.80;99.90;;;;;;4423568;28;657916;-73
2024/01/09 06:41:21;;;;;;;16.37;4.47;;;-16.80;99.90;;;;;;4444558;28;658544;-73
2024/01/09 06:44:08;;;;;;;0.10;0.10;;;-16.90;99.90;;;;;;4418032;28;658321;-73
2024/01/09 06:46:56;;;;;;;1.50;1.30;;;-16.90;99.90;;;;;;4444080;28;659405;-73
2024/01/09 06:49:43;;;;;;;1.93;0.63;;;-16.90;99.90;;;;;;4420853;28;657660;-73
2024/01/09 06:52:30;;;;;;;7.13;2.63;;;-16.70;99.90;;;;;;4438697;28;658335;-74
2024/01/09 06:55:18;;;;;;;7.03;4.30;;;-16.70;99.90;;;;;;4418429;28;657856;-74
2024/01/09 06:58:07;;;;;;;0.10;0.10;;;-16.60;99.90;;;;;;4440452;28;658430;-73
2024/01/09 07:00:54;;;;;;;0.45;0.45;;;-16.50;99.90;;;;;;4413917;28;658774;-73
2024/01/09 07:03:42;;;;;;;10.27;1.75;;;-16.40;99.90;;;;;;4439530;28;658055;-72
2024/01/09 07:06:29;;;;;;;2.40;2.23;;;-16.40;99.90;;;;;;4413581;28;659390;-73
2024/01/09 07:09:16;;;;;;;11.47;2.10;;;-16.20;99.90;;;;;;4440788;28;657341;-73
2024/01/09 07:12:04;;;;;;;9.13;4.95;;;-16.10;99.90;;;;;;4420432;28;658908;-72
2024/01/09 07:14:52;;;;;;;5.63;2.93;;;-15.90;99.90;;;;;;4437964;28;657132;-73
2024/01/09 07:17:40;;;;;;;4.80;3.33;;;-15.70;99.90;;;;;;4418563;28;658004;-72
2024/01/09 07:20:27;;;;;;;9.83;3.87;;;-15.50;99.90;;;;;;4438507;28;657138;-73
2024/01/09 07:23:14;;;;;;;1.77;1.67;;;-15.40;99.90;;;;;;4418299;28;657432;-73
2024/01/09 07:26:01;;;;;;;11.73;4.27;;;-15.20;99.90;;;;;;4441693;28;657882;-73
2024/01/09 07:28:48;;;;;;;12.53;1.77;;;-15.10;99.90;;;;;;4421034;28;658719;-73
2024/01/09 07:31:37;;;;;;;7.55;2.53;;;-15.00;99.90;;;;;;4438905;28;659016;-73
2024/01/09 07:34:24;;;;;;;5.27;3.17;;;-14.90;99.90;;;;;;4414887;28;658236;-73
2024/01/09 07:37:11;;;;;;;2.27;1.83;;;-14.80;99.90;;;;;;4435303;28;657563;-73
2024/01/09 07:39:58;;;;;;;0.93;0.93;;;-14.70;99.90;;;;;;4418476;28;658253;-73
2024/01/09 07:42:46;;;;;;;2.40;1.42;;;-14.50;99.90;;;;;;4427727;28;657897;-73
2024/01/09 07:45:33;;;;;;;1.80;1.70;;;-14.50;99.90;;;;;;4418708;28;657852;-72
2024/01/09 07:48:22;;;;;;;4.93;1.97;;;-14.40;99.90;;;;;;4438200;28;658133;-74
2024/01/09 07:51:09;;;;;;;13.57;3.17;;;-14.20;99.90;;;;;;4418088;28;658452;-73
2024/01/09 07:53:56;;;;;;;3.05;1.70;;;-14.10;99.90;;;;;;4437324;28;658924;-73
2024/01/09 07:56:43;;;;;;;14.32;5.97;;;-13.90;99.90;;;;;;4422939;28;658668;-73
2024/01/09 07:59:30;;;;;;;3.80;2.67;;;-13.80;99.90;;;;;;4436922;28;659519;-73
2024/01/09 08:02:18;;;;;;;2.93;1.87;;;-13.60;99.90;;;;;;4422634;28;657670;-72
2024/01/09 08:05:07;;;;;;;10.60;2.20;;;-13.50;99.90;;;;;;4438157;28;657730;-73
2024/01/09 08:07:54;;;;;;;6.10;2.40;;;-13.40;99.90;;;;;;4420014;28;658920;-72
2024/01/09 08:10:41;;;;;;;9.33;4.33;;;-13.30;99.90;;;;;;4433205;28;658011;-73
2024/01/09 08:13:28;;;;;;;7.50;5.17;;;-13.30;99.90;;;;;;4415359;28;658170;-73
2024/01/09 08:16:16;;;;;;;36.80;7.67;;;-13.10;99.90;;;;;;4437364;28;657696;-73
2024/01/09 08:19:04;;;;;;;6.87;3.10;;;-13.10;99.90;;;;;;4420116;28;658795;-73
2024/01/09 08:21:53;;;;;;;25.95;7.28;;;-13.00;99.90;;;;;;4444708;28;657186;-73
2024/01/09 08:24:40;;;;;;;8.57;2.90;;;-12.80;99.90;;;;;;4422374;28;658690;-74
2024/01/09 08:27:27;;;;;;;8.87;3.70;;;-12.70;99.90;;;;;;4424776;28;657599;-72
2024/01/09 08:30:15;;;;;;;16.37;3.63;;;-12.60;99.90;;;;;;4444473;28;657386;-73
2024/01/09 08:33:02;;;;;;;14.37;5.93;;;-12.40;99.90;;;;;;4429279;28;658886;-73
2024/01/09 08:35:51;;;;;;;14.20;5.13;;;-12.30;99.90;;;;;;4443432;28;659023;-74
2024/01/09 08:38:39;;;;;;;7.63;3.60;;;-11.90;99.90;;;;;;4421518;28;658996;-73
2024/01/09 08:41:26;;;;;;;24.03;6.80;;;-11.20;99.90;;;;;;4449611;28;657919;-74
2024/01/09 08:44:14;;;;;;;25.17;6.37;;;-10.80;99.90;;;;;;4413150;28;658910;-73
2024/01/09 08:47:01;;;;;;;21.53;8.33;;;-10.50;99.90;;;;;;4435994;28;659399;-74
2024/01/09 08:49:48;;;;;;;25.03;8.73;;;-10.20;99.90;;;;;;4421032;28;659028;-73
2024/01/09 08:52:36;;;;;;;18.97;7.10;;;-10.00;99.90;;;;;;4438203;28;658887;-74
2024/01/09 08:55:24;;;;;;;19.07;6.37;;;-10.00;99.90;;;;;;4426402;28;658946;-74
2024/01/09 08:58:11;;;;;;;18.42;6.13;;;-9.60;99.90;;;;;;4440794;28;658777;-74
2024/01/09 09:00:59;;;;;;;35.40;9.43;;;-9.30;99.90;;;;;;4413157;28;657426;-74
2024/01/09 09:03:46;;;;;;;14.10;5.63;;;-9.20;99.90;;;;;;4438412;28;658133;-73
2024/01/09 09:06:33;;;;;;;15.70;4.53;;;-9.00;99.90;;;;;;4417996;28;657583;-73
2024/01/09 09:09:20;;;;;;;22.83;8.33;;;-8.80;99.90;;;;;;4445368;28;658689;-73
2024/01/09 09:12:09;;;;;;;12.90;5.00;;;-8.10;99.90;;;;;;4425212;28;657505;-72
2024/01/09 09:14:56;;;;;;;27.92;7.13;;;-7.30;99.90;;;;;;4437761;28;657828;-74
2024/01/09 09:17:44;;;;;;;10.67;4.33;;;-6.40;99.90;;;;;;4417962;28;657627;-73
2024/01/09 09:20:31;;;;;;;23.60;7.50;;;-5.80;98.90;;;;;;4440474;28;657487;-73
2024/01/09 09:23:18;;;;;;;30.23;9.17;;;-5.70;99.90;;;;;;4417493;28;657605;-74
2024/01/09 09:26:05;;;;;;;22.50;7.03;;;-4.90;99.90;;;;;;4447350;28;658384;-74
2024/01/09 09:28:55;;;;;;;25.03;7.63;;;-4.40;94.60;;;;;;4416575;28;657964;-72
2024/01/09 09:31:42;;;;;;;20.80;6.03;;;-4.70;90.70;;;;;;4442385;28;657949;-74
2024/01/09 09:34:29;;;;;;;11.77;4.50;;;-4.20;85.70;;;;;;4418650;28;657309;-73
2024/01/09 09:37:16;;;;;;;21.33;6.73;;;-3.50;67.50;;;;;;4440415;28;657756;-74
2024/01/09 09:40:04;;;;;;;20.58;6.65;;;-2.70;69.40;;;;;;4423846;28;657951;-74
2024/01/09 09:42:53;;;;;;;18.57;6.73;;;-1.80;64.10;;;;;;4438949;28;657613;-74
2024/01/09 09:45:41;;;;;;;22.67;6.50;;;-1.50;54.70;;;;;;4416017;28;658956;-73
2024/01/09 09:48:29;;;;;;;17.20;6.43;;;-2.90;56.80;;;;;;4421011;28;658434;-74
2024/01/09 09:51:16;;;;;;;16.53;5.47;;;-2.30;59.20;;;;;;4437290;28;658046;-75
2024/01/09 09:54:03;;;;;;;15.03;5.53;;;-2.80;58.60;;;;;;4419699;28;658200;-74
2024/01/09 09:56:50;;;;;;;22.20;6.23;;;-1.50;56.70;;;;;;4442175;28;658377;-75
2024/01/09 09:59:37;;;;;;;21.27;6.87;;;-1.60;51.70;;;;;;4421579;28;657707;-73
2024/01/09 10:02:26;;;;;;;13.40;5.27;;;-1.60;54.90;;;;;;4440387;28;657130;-74
2024/01/09 10:05:16;;;;;;;18.27;6.73;;;-1.20;52.40;;;;;;4423718;28;657365;-75
2024/01/09 10:08:03;;;;;;;16.70;6.50;;;-0.70;53.20;;;;;;4420946;28;657127;-74
2024/01/09 10:10:50;;;;;;;19.17;6.47;;;0.30;50.20;;;;;;4438394;28;658079;-71
2024/01/09 10:13:37;;;;;;;16.57;5.57;;;0.60;44.60;;;;;;4415514;28;657271;-73
2024/01/09 10:16:25;;;;;;;17.87;7.23;;;-0.50;46.60;;;;;;4451783;28;656576;-74
2024/01/09 10:19:14;;;;;;;18.40;7.17;;;-1.20;46.10;;;;;;4437123;28;658094;-72
2024/01/09 10:22:01;;;;;;;4.27;1.90;;;-2.10;47.80;;;;;;4444608;28;658758;-74
2024/01/09 10:24:48;;;;;;;4.17;2.07;;;-2.20;49.10;;;;;;4422350;28;657159;-74
2024/01/09 10:27:36;;;;;;;20.07;7.07;;;-1.90;48.90;;;;;;4440716;28;657278;-74
2024/01/09 10:30:24;;;;;;;21.83;7.13;;;-1.30;49.80;;;;;;4419025;28;658218;-74
2024/01/09 10:33:11;;;;;;;12.10;4.97;;;-0.60;48.10;;;;;;4441455;28;657591;-73
2024/01/09 10:36:00;;;;;;;20.13;6.13;;;0.40;45.40;;;;;;4418359;28;657506;-72
2024/01/09 10:38:47;;;;;;;20.03;7.10;;;1.40;43.30;;;;;;4433163;28;657046;-71
2024/01/09 10:41:35;;;;;;;18.70;7.73;;;1.40;41.10;;;;;;4442495;28;657341;-72
2024/01/09 10:44:22;;;;;;;19.77;7.83;;;1.30;43.10;;;;;;4440502;28;656750;-73
2024/01/09 10:47:10;;;;;;;27.43;9.53;;;1.60;40.30;;;;;;4416928;28;657054;-72
2024/01/09 10:49:57;;;;;;;23.40;9.13;;;2.30;40.00;;;;;;4418281;28;657003;-71
2024/01/09 10:52:46;;;;;;;28.27;10.98;;;2.70;39.30;;;;;;4445128;28;657472;-73
2024/01/09 10:55:33;;;;;;;30.08;10.93;;;2.60;38.30;;;;;;4417951;28;657437;-73
2024/01/09 10:58:21;;;;;;;31.83;11.23;;;3.20;37.70;;;;;;4441960;28;657867;-72
2024/01/09 11:01:09;;;;;;;20.87;6.63;;;3.30;38.00;;;;;;4411499;28;657609;-72
2024/01/09 11:03:57;;;;;;;18.80;7.03;;;3.70;38.30;;;;;;4445599;28;657023;-72
2024/01/09 11:06:44;;;;;;;19.77;7.30;;;3.00;36.00;;;;;;4426279;28;657798;-72
2024/01/09 11:09:33;;;;;;;19.07;6.53;;;3.10;37.80;;;;;;4445172;28;656460;-72
2024/01/09 11:12:24;;;;;;;20.67;6.23;;;2.10;34.40;;;;;;4413811;28;657862;-73
2024/01/09 11:15:15;;;;;;;12.93;4.83;;;1.30;37.30;;;;;;4424029;28;657166;-72
2024/01/09 11:18:04;;;;;;;18.87;6.47;;;1.90;37.30;;;;;;4433170;28;657030;-71
2024/01/09 11:21:00;;;;;;;18.47;6.93;;;2.70;38.50;;;;;;4443163;28;657009;-72
2024/01/09 11:23:54;;;;;;;18.13;6.07;;;2.30;35.70;;;;;;4438817;28;657486;-72
2024/01/09 11:26:43;;;;;;;36.93;11.47;;;2.50;37.40;;;;;;4422236;28;657157;-72
2024/01/09 11:29:49;;;;;;;23.80;7.97;;;2.70;34.40;;;;;;4415244;28;658035;-73
2024/01/09 11:32:38;;;;;;;31.37;9.90;;;1.70;38.40;;;;;;4412864;28;657076;-72
2024/01/09 11:35:27;;;;;;;25.80;8.57;;;3.00;36.80;;;;;;4412009;28;657413;-73
2024/01/09 11:38:14;;;;;;;28.73;11.30;;;3.70;34.50;;;;;;4422112;28;657268;-72
2024/01/09 11:41:03;;;;;;;25.13;8.97;;;2.40;35.70;;;;;;4442221;28;658547;-73
2024/01/09 11:44:05;;;;;;;38.93;11.40;;;3.80;36.20;;;;;;4410548;28;658138;-73
2024/01/09 11:46:52;;;;;;;42.40;15.47;;;5.00;32.60;;;;;;4402945;28;657564;-72
2024/01/09 11:49:40;;;;;;;32.67;10.03;;;5.80;31.50;;;;;;4444611;28;657907;-73
2024/01/09 11:52:27;;;;;;;23.63;8.67;;;4.70;30.70;;;;;;4439005;28;657193;-73
2024/01/09 11:55:15;;;;;;;17.58;7.03;;;5.30;31.80;;;;;;4426904;28;657763;-73
2024/01/09 11:58:02;;;;;;;14.60;5.53;;;4.90;30.00;;;;;;4437673;28;656882;-73
2024/01/09 12:00:51;;;;;;;35.00;10.37;;;4.30;30.40;;;;;;4433990;28;656921;-74
2024/01/09 12:03:38;;;;;;;14.57;5.13;;;5.20;31.90;;;;;;4422353;28;658120;-73
2024/01/09 12:06:26;;;;;;;17.90;5.67;;;5.00;30.70;;;;;;4452089;28;656980;-73
2024/01/09 12:09:14;;;;;;;29.63;7.93;;;5.00;32.00;;;;;;4422997;28;656241;-73
2024/01/09 12:12:01;;;;;;;23.57;6.83;;;6.20;31.20;;;;;;4442433;28;656832;-73
2024/01/09 12:14:52;;;;;;;15.30;5.40;;;6.90;29.70;;;;;;4416397;28;656911;-72
2024/01/09 12:17:44;;;;;;;16.17;6.30;;;7.20;28.50;;;;;;4419212;28;659378;-72
2024/01/09 12:20:32;;;;;;;16.33;5.00;;;6.40;28.50;;;;;;4417223;28;658236;-72
2024/01/09 12:23:19;;;;;;;8.43;3.43;;;6.50;28.80;;;;;;4422291;28;657289;-72
2024/01/09 12:26:06;;;;;;;21.77;6.03;;;4.80;29.30;;;;;;4450850;28;655810;-73
2024/01/09 12:28:54;;;;;;;18.57;6.53;;;6.00;30.00;;;;;;4416670;28;657566;-72
2024/01/09 12:31:41;;;;;;;34.97;9.50;;;6.50;29.00;;;;;;4443101;28;657036;-72
2024/01/09 12:34:29;;;;;;;27.27;7.97;;;6.50;29.50;;;;;;4424339;28;656810;-72
2024/01/09 12:37:17;;;;;;;16.73;5.90;;;7.10;29.10;;;;;;4447218;28;656741;-72
2024/01/09 12:40:09;;;;;;;26.87;10.13;;;6.80;27.20;;;;;;4428215;28;656766;-72
2024/01/09 12:43:09;;;;;;;35.10;12.40;;;5.40;29.50;;;;;;4416795;28;657621;-72
2024/01/09 12:45:57;;;;;;;30.30;12.23;;;4.00;31.20;;;;;;4421031;28;657333;-73
2024/01/09 12:48:47;;;;;;;22.50;6.33;;;3.60;33.70;;;;;;4420382;28;658077;-72
2024/01/09 12:51:36;;;;;;;20.23;5.67;;;3.40;33.50;;;;;;4418028;28;657583;-73
2024/01/09 12:54:23;;;;;;;24.47;8.23;;;4.30;33.00;;;;;;4417455;28;656649;-72
2024/01/09 12:57:10;;;;;;;25.67;6.53;;;4.10;30.60;;;;;;4443243;28;657124;-73
2024/01/09 12:59:58;;;;;;;19.50;6.47;;;4.30;31.90;;;;;;4423513;28;656533;-72
2024/01/09 13:02:45;;;;;;;23.53;6.67;;;4.20;33.30;;;;;;4442158;28;657779;-72
2024/01/09 13:05:32;;;;;;;29.83;10.97;;;4.30;31.70;;;;;;4427559;28;657209;-72
2024/01/09 13:08:21;;;;;;;32.03;11.83;;;3.70;32.30;;;;;;4440082;28;657793;-73
2024/01/09 13:11:09;;;;;;;36.57;13.20;;;4.00;32.10;;;;;;4428866;28;657568;-72
2024/01/09 13:13:58;;;;;;;32.67;11.97;;;3.50;34.20;;;;;;4448731;28;657549;-72
2024/01/09 13:16:46;;;;;;;29.33;9.97;;;2.00;33.80;;;;;;4414595;28;657707;-72
2024/01/09 13:19:33;;;;;;;18.10;7.00;;;1.60;35.10;;;;;;4428284;28;656960;-72
2024/01/09 13:22:20;;;;;;;15.60;6.50;;;1.50;38.20;;;;;;4455143;28;657328;-73
2024/01/09 13:25:09;;;;;;;22.33;7.70;;;2.60;35.90;;;;;;4431263;28;656315;-72
2024/01/09 13:27:56;;;;;;;21.93;8.37;;;3.00;34.50;;;;;;4448506;28;657512;-73
2024/01/09 13:30:44;;;;;;;25.77;8.77;;;3.50;34.30;;;;;;4421668;28;656239;-74
2024/01/09 13:33:31;;;;;;;22.17;8.93;;;3.00;32.70;;;;;;4432076;28;657182;-73
2024/01/09 13:36:19;;;;;;;25.57;9.83;;;2.20;34.90;;;;;;4419909;28;656851;-74
2024/01/09 13:39:09;;;;;;;27.40;9.20;;;1.90;36.50;;;;;;4435195;28;656065;-73
2024/01/09 13:41:58;;;;;;;24.83;9.20;;;1.70;36.60;;;;;;4410841;28;657825;-74
2024/01/09 13:44:45;;;;;;;25.37;7.13;;;1.10;36.00;;;;;;4413782;28;657479;-73
2024/01/09 13:47:32;;;;;;;20.97;7.33;;;0.90;36.90;;;;;;4409266;28;656959;-72
2024/01/09 13:50:20;;;;;;;22.93;6.70;;;1.40;37.20;;;;;;4440463;28;657692;-74
2024/01/09 13:53:07;;;;;;;19.70;5.90;;;1.30;35.60;;;;;;4429594;28;656693;-72
2024/01/09 13:55:55;;;;;;;16.17;5.57;;;0.90;35.90;;;;;;4445032;28;657064;-74
2024/01/09 13:58:43;;;;;;;18.90;6.40;;;1.00;34.80;;;;;;4438905;28;656935;-74
2024/01/09 14:01:32;;;;;;;18.63;6.20;;;0.70;32.30;;;;;;4404526;28;657508;-73
2024/01/09 14:04:19;;;;;;;19.37;6.50;;;1.20;29.40;;;;;;4414030;28;657764;-71
2024/01/09 14:07:09;;;;;;;20.13;6.97;;;1.30;25.40;;;;;;4439490;28;657618;-73
2024/01/09 14:09:57;;;;;;;13.63;5.33;;;1.10;99.90;;;;;;4415998;28;656662;-73
2024/01/09 14:12:44;;;;;;;23.93;7.27;;;1.00;99.90;;;;;;4424700;28;656594;-73